Flight Track Log - Related Links

Times and Time Zones

All times are in EDT time to prevent confusion due to time zone crossing. See the ACA831 flight status page for this flight to view local times or setup timezone preferences in your user account.

Time Position Orientation Groundspeed Altitude Reporting Facility
EDT Latitude Longitude Course Direction KTS MPH feet Rate Location/Type
Sun 04:12:23 PM 45.4650 -73.7360 53° Northeast 10 12  Level FlightAware ADS-B
Sun 04:13:34 PM 45.4700 -73.7300 40° Northeast 20 23 65 Level FlightAware ADS-B
Sun 04:16:00 PM 45.4333 -74.1177 270° West  Level FlightAware Approximate
Sun 04:16:24 PM 45.4780 -73.7180 270° West 7 8  Level FlightAware ADS-B
Sun 04:18:20 PM 45.4720 -73.7220 205° Southwest 110 127 183 Level FlightAware ADS-B
Sun 04:18:35 PM 45.4640 -73.7330 224° Southwest 165 190 400 2,923 Climbing FlightAware ADS-B
Sun 04:18:59 PM 45.4500 -73.7500 220° Southwest 153 176 1,900 2,727 Climbing FlightAware ADS-B
Sun 04:19:30 PM 45.4320 -73.7700 218° Southwest 193 222 2,900 2,357 Climbing FlightAware ADS-B
Sun 04:19:55 PM 45.4090 -73.7970 219° Southwest 230 265 4,100 2,615 Climbing FlightAware ADS-B
Sun 04:20:09 PM 45.3960 -73.8120 219° Southwest 221 254 4,600 1,800 Climbing FlightAware ADS-B
Sun 04:20:35 PM 45.3820 -73.8420 236° Southwest 227 261 5,300 1,429 Climbing FlightAware ADS-B
Sun 04:20:51 PM 45.3790 -73.8660 260° West 237 273 5,600 1,183 Climbing FlightAware ADS-B
Sun 04:21:46 PM 45.3860 -73.9570 276° West 250 288 6,700 596 Climbing FlightAware ADS-B
Sun 04:23:22 PM 45.3960 -74.1210 275° West 266 306 7,100 275 Climbing FlightAware ADS-B
Sun 04:23:57 PM 45.3990 -74.1810 274° West 267 307 7,300 667 Climbing FlightAware ADS-B
Sun 04:24:07 PM 45.4000 -74.2000 274° West 270 311 7,600 4,050 Climbing FlightAware ADS-B
Sun 04:24:37 PM 45.4060 -74.2530 279° West 259 298 10,000 3,343 Climbing FlightAware ADS-B
Sun 04:25:17 PM 45.4110 -74.3260 276° West 310 357 11,500 2,400 Climbing FlightAware ADS-B
Sun 04:25:57 PM 45.4150 -74.4160 274° West 353 406 13,200 3,140 Climbing FlightAware ADS-B
Sun 04:26:43 PM 45.4010 -74.5240 260° West 366 421 16,000 3,533 Climbing FlightAware ADS-B
Sun 04:27:27 PM 45.3830 -74.6290 256° West 381 438 18,500 3,429 Climbing FlightAware ADS-B
Sun 04:28:07 PM 45.3660 -74.7290 256° West 384 442 20,800 2,500 Climbing FlightAware ADS-B
Sun 04:28:51 PM 45.3480 -74.8390 257° West 399 459 22,000 1,643 Climbing FlightAware ADS-B
Sun 04:29:31 PM 45.3310 -74.9400 257° West 391 450 23,100 1,969 Climbing FlightAware ADS-B
Sun 04:29:55 PM 45.3200 -75.0000 255° West 396 456 24,100 2,308 Climbing FlightAware ADS-B
Sun 04:31:15 PM 45.2900 -75.1740 256° West 406 467 27,100 2,419 Climbing FlightAware ADS-B
Sun 04:31:59 PM 45.2660 -75.3120 256° West 411 473 29,100 2,581 Climbing FlightAware ADS-B
Sun 04:32:41 PM 45.2470 -75.4210 256° West 410 472 30,800 1,624 Climbing FlightAware ADS-B
Sun 04:33:24 PM 45.2270 -75.5310 256° West 395 455 31,400 857 Climbing FlightAware ADS-B
Sun 04:34:05 PM 45.2100 -75.6300 256° West 375 432 32,000 444 Climbing FlightAware ADS-B
Sun 04:34:45 PM 45.1920 -75.7260 255° West 375 432 32,000  Level FlightAware ADS-B
Sun 04:35:28 PM 45.1750 -75.8240 256° West 382 440 32,000  Level FlightAware ADS-B
Sun 04:36:15 PM 45.1530 -75.9440 255° West 386 444 32,000  Level FlightAware ADS-B
Sun 04:36:54 PM 45.1350 -76.0430 256° West 389 448 32,000  Level FlightAware ADS-B
Sun 04:37:31 PM 45.1190 -76.1290 255° West 391 450 32,000  Level FlightAware ADS-B
Sun 04:38:17 PM 45.0940 -76.2430 253° West 389 448 32,000  Level FlightAware ADS-B
Sun 04:39:01 PM 45.0570 -76.3440 243° Southwest 389 448 32,000  Level FlightAware ADS-B
Sun 04:39:41 PM 45.0230 -76.4290 241° Southwest 391 450 32,000  Level FlightAware ADS-B
Sun 04:40:23 PM 44.9850 -76.5230 240° Southwest 392 451 32,000  Level FlightAware ADS-B
Sun 04:41:03 PM 44.9480 -76.6170 241° Southwest 393 452 32,000  Level FlightAware ADS-B
Sun 04:41:51 PM 44.9070 -76.7200 241° Southwest 394 453 32,000  Level FlightAware ADS-B
Sun 04:42:31 PM 44.8720 -76.8080 241° Southwest 394 453 32,000  Level FlightAware ADS-B
Sun 04:43:13 PM 44.8330 -76.9030 240° Southwest 395 455 32,000  Level FlightAware ADS-B
Sun 04:43:53 PM 44.7990 -76.9890 241° Southwest 394 453 32,000  Level FlightAware ADS-B
Sun 04:44:33 PM 44.7630 -77.0780 240° Southwest 395 455 32,000  Level FlightAware ADS-B
Sun 04:45:18 PM 44.7210 -77.1820 240° Southwest 395 455 32,000  Level FlightAware ADS-B
Sun 04:45:53 PM 44.6890 -77.2590 240° Southwest 396 456 32,000  Level FlightAware ADS-B
Sun 04:46:43 PM 44.6440 -77.3710 241° Southwest 397 457 32,000  Level FlightAware ADS-B
Sun 04:47:23 PM 44.6100 -77.4540 240° Southwest 398 458 32,000  Level FlightAware ADS-B
Sun 04:48:03 PM 44.5710 -77.5480 240° Southwest 399 459 32,000  Level FlightAware ADS-B
Sun 04:48:48 PM 44.5310 -77.6450 240° Southwest 400 460 32,000  Level FlightAware ADS-B
Sun 04:49:33 PM 44.4900 -77.7440 240° Southwest 401 461 32,000  Level FlightAware ADS-B
Sun 04:50:13 PM 44.4530 -77.8340 240° Southwest 402 463 32,000  Level FlightAware ADS-B
Sun 04:50:53 PM 44.4120 -77.9320 240° Southwest 404 465 32,000  Level FlightAware ADS-B
Sun 04:51:38 PM 44.3700 -78.0320 240° Southwest 406 467 32,000  Level FlightAware ADS-B
Sun 04:52:18 PM 44.3330 -78.1220 240° Southwest 406 467 32,000  Level FlightAware ADS-B
Sun 04:52:58 PM 44.2950 -78.2120 239° Southwest 401 461 32,000 -988 Level FlightAware ADS-B
Sun 04:53:43 PM 44.2540 -78.3100 240° Southwest 379 436 30,600 -2,188 Descending FlightAware ADS-B
Sun 04:54:23 PM 44.2180 -78.3930 239° Southwest 375 432 28,900 -2,471 Descending FlightAware ADS-B
Sun 04:55:08 PM 44.1810 -78.4810 240° Southwest 373 429 27,100 -2,612 Descending FlightAware ADS-B
Sun 04:55:48 PM 44.1440 -78.5670 239° Southwest 373 429 25,200 -2,700 Descending FlightAware ADS-B
Sun 04:56:28 PM 44.1080 -78.6500 239° Southwest 377 434 23,500 -2,329 Descending FlightAware ADS-B
Sun 04:57:13 PM 44.0680 -78.7440 239° Southwest 367 422 21,900 -2,047 Descending FlightAware ADS-B
Sun 04:57:53 PM 44.0340 -78.8230 239° Southwest 354 407 20,600 -1,906 Descending FlightAware ADS-B
Sun 04:58:38 PM 43.9960 -78.9050 237° Southwest 345 397 19,200 -2,259 Descending FlightAware ADS-B
Sun 04:59:18 PM 43.9620 -78.9800 238° Southwest 351 404 17,400 -2,400 Descending FlightAware ADS-B
Sun 04:59:53 PM 43.9300 -79.0490 237° Southwest 342 394 16,200 -1,943 Descending FlightAware ADS-B
Sun 05:01:03 PM 43.8720 -79.1750 237° Southwest 327 376 14,000 -1,927 Descending FlightAware ADS-B
Sun 05:01:42 PM 43.8490 -79.2530 248° West 321 369 12,700 -2,000 Descending FlightAware ADS-B
Sun 05:02:27 PM 43.8300 -79.3430 254° West 320 368 11,200 -1,765 Descending FlightAware ADS-B
Sun 05:03:07 PM 43.8140 -79.4210 254° West 312 359 10,200 -1,200 Descending FlightAware ADS-B
Sun 05:03:32 PM 43.8040 -79.4670 253° West 297 342 9,900 -764 Descending FlightAware ADS-B
Sun 05:04:02 PM 43.7930 -79.5200 254° West 280 322 9,500 -800 Descending FlightAware ADS-B
Sun 05:04:17 PM 43.7870 -79.5440 251° West 277 319 9,300 -600 Descending FlightAware ADS-B
Sun 05:04:42 PM 43.7780 -79.5870 254° West 271 312 9,100 -450 Descending FlightAware ADS-B
Sun 05:04:57 PM 43.7730 -79.6120 255° West 268 308 9,000 -900 Descending FlightAware ADS-B
Sun 05:05:22 PM 43.7640 -79.6530 253° West 265 305 8,500 -1,026 Descending FlightAware ADS-B
Sun 05:06:13 PM 43.7460 -79.7250 251° West 256 295 7,700 -1,100 Descending FlightAware ADS-B
Sun 05:06:22 PM 43.7350 -79.7420 228° Southwest 256 295 7,400 -1,269 Descending FlightAware ADS-B
Sun 05:07:57 PM 43.6570 -79.8560 227° Southwest 255 293 5,500 -1,009 Descending FlightAware ADS-B
Sun 05:10:08 PM 43.5550 -79.8860 192° South 209 241 3,600 -863 Descending FlightAware ADS-B
Sun 05:10:37 PM 43.5590 -79.8430 83° East 208 239 3,200 -556 Descending FlightAware ADS-B
Sun 05:11:02 PM 43.5700 -79.8160 61° Northeast 199 229 3,100 -438 Descending FlightAware ADS-B
Sun 05:12:13 PM 43.6100 -79.7570 47° Northeast 171 197 2,500 -667 Descending FlightAware ADS-B
Sun 05:13:08 PM 43.6380 -79.7160 47° Northeast 157 181 1,700 -840 Descending FlightAware ADS-B
Sun 05:13:53 PM 43.6590 -79.6860 46° Northeast 145 167 1,100 -771 Descending FlightAware ADS-B
Sun 05:14:18 PM 43.6690 -79.6710 47° Northeast 151 174 800 -353 Descending FlightAware ADS-B
Sun 05:14:44 PM 43.6800 -79.6560 45° Northeast 151 174 800  Level FlightAware ADS-B

Login

Don't have an account? Register now (free) for customized features, flight alerts, and more!